Handy-one — WDE3612 — position and weather

sailwx.info

Track history (hours):
 
Tides and Currents Weather Stations Pressure Air Temp Water Temp Dewpoint Dewpoint Depression Visibility Wind Speed Wind Dir Waves Ship Positions

Handy-one

Owner: Tugz International L.L.C., Cleveland, OH. More information available from US FCC via Universal Licensing System and Coast Guard Vessel Documentation Center.

Last reported at 2017-Aug-29 11:40 UTC. Time now 2017-Sep-24 15:53 UTC.
Position N 17°51' W 066°07'.
Warning: this ship's position is 26 days out of date.

Length 22 m; draft 3.6 m.

Type: Tug. MMSI: 367341590.

Date/timePositionNaut miles runAvg speedWind from/ knotsBaromVisibWave heightAir tempDewpointWater temp
2017-Aug-29 11:40N 17°51' W 066°07'210.3
2017-Aug-29 11:29N 17°52' W 066°09'510.2
2017-Aug-29 11:01N 17°53' W 066°14'4 7.7
2017-Aug-29 10:30N 17°56' W 066°16'3 2.1
2017-Aug-29 09:12N 17°57' W 066°14'0 0.0
2017-Aug-29 09:00N 17°57' W 066°14'0 0.0
2017-Aug-29 08:30N 17°57' W 066°14'0 0.0
2017-Aug-29 08:00N 17°57' W 066°14'0 0.0
2017-Aug-29 07:30N 17°57' W 066°14'0 0.0
2017-Aug-29 06:54N 17°57' W 066°14'0 0.0
2017-Aug-29 06:30N 17°57' W 066°14'0 0.0
2017-Aug-29 05:36N 17°57' W 066°14'0 0.0
2017-Aug-29 05:30N 17°57' W 066°14'0 0.0
2017-Aug-29 05:00N 17°57' W 066°14'0 0.0
2017-Aug-29 04:27N 17°57' W 066°14'0 0.0
2017-Aug-29 04:00N 17°57' W 066°14'0 0.0
2017-Aug-29 03:24N 17°57' W 066°14'0 0.0
2017-Aug-29 03:00N 17°57' W 066°14'0 0.0
2017-Aug-29 02:30N 17°57' W 066°14'0 0.0
2017-Aug-29 02:00N 17°57' W 066°14'0 0.0
2017-Aug-29 01:30N 17°57' W 066°14'0 0.0
2017-Aug-29 01:00N 17°57' W 066°14'0 0.0
2017-Aug-28 19:31N 17°57' W 066°14'0 1.1
2017-Aug-28 19:28N 17°57' W 066°14'0 0.0
2017-Aug-28 18:58N 17°57' W 066°14'0 0.0
2017-Aug-28 18:28N 17°57' W 066°14'0 0.0
2017-Aug-28 17:58N 17°57' W 066°14'0 0.0
2017-Aug-28 17:28N 17°57' W 066°14'0 0.0
2017-Aug-28 16:58N 17°57' W 066°14'0 0.1
2017-Aug-28 16:28N 17°57' W 066°14'0 0.1
2017-Aug-28 15:58N 17°57' W 066°14'0 0.5
2017-Aug-28 15:28N 17°57' W 066°13'1 2.5
2017-Aug-28 15:00N 17°56' W 066°14'1 1.3
2017-Aug-28 14:29N 17°56' W 066°15'0 0.0
2017-Aug-28 13:59N 17°56' W 066°15'0 0.0
2017-Aug-28 13:23N 17°56' W 066°15'0 0.0
2017-Aug-28 12:59N 17°56' W 066°15'0 0.0
2017-Aug-28 12:29N 17°56' W 066°15'0 0.0
2017-Aug-28 11:59N 17°56' W 066°15'0 0.0
2017-Aug-28 11:29N 17°56' W 066°15'0 0.0
2017-Aug-28 10:59N 17°56' W 066°15'0 0.0
2017-Aug-28 10:29N 17°56' W 066°15'0 0.0
2017-Aug-28 09:53N 17°56' W 066°15'0 0.0
2017-Aug-28 09:29N 17°56' W 066°15'0 0.0
2017-Aug-28 08:59N 17°56' W 066°15'0 0.0
2017-Aug-28 08:29N 17°56' W 066°15'0 0.0
2017-Aug-28 07:59N 17°56' W 066°15'0 0.0
2017-Aug-28 07:29N 17°56' W 066°15'0 0.0
2017-Aug-28 06:59N 17°56' W 066°15'0 0.0
2017-Aug-28 06:29N 17°56' W 066°15'0 0.0
2017-Aug-28 06:01N 17°56' W 066°15'0 0.0
2017-Aug-28 05:31N 17°56' W 066°15'0 0.0
2017-Aug-28 05:01N 17°56' W 066°15'0 0.0
2017-Aug-28 04:31N 17°56' W 066°15'0 0.0
2017-Aug-28 04:01N 17°56' W 066°15'0 0.0
2017-Aug-28 03:31N 17°56' W 066°15'0 0.0
2017-Aug-28 03:01N 17°56' W 066°15'0 0.0
2017-Aug-28 02:30N 17°56' W 066°15'0 0.0
2017-Aug-28 02:01N 17°56' W 066°15'0 0.1
2017-Aug-28 01:31N 17°56' W 066°15'1 1.9
2017-Aug-28 01:01N 17°56' W 066°16'2 3.4
2017-Aug-28 00:31N 17°55' W 066°17'2 4.9
2017-Aug-28 00:01N 17°53' W 066°18'2 4.7
2017-Aug-27 23:31N 17°51' W 066°19'2 4.5
2017-Aug-27 23:01N 17°49' W 066°20'1 2.8
2017-Aug-27 22:31N 17°49' W 066°22'2 3.3
2017-Aug-27 22:00N 17°49' W 066°23'3 5.3
2017-Aug-27 21:31N 17°49' W 066°26'3 5.5
2017-Aug-27 21:01N 17°49' W 066°29'3 5.4
2017-Aug-27 20:30N 17°50' W 066°32'3 5.5
2017-Aug-27 20:00N 17°50' W 066°35'3 5.5
2017-Aug-27 19:31N 17°51' W 066°37'3 5.5
2017-Aug-27 19:01N 17°53' W 066°40'3 5.6
2017-Aug-27 18:31N 17°55' W 066°42'3 5.5
2017-Aug-27 18:00N 17°56' W 066°44'4 2.5
2017-Aug-27 16:26N 17°60' W 066°46'0 0.0
2017-Aug-27 15:50N 17°60' W 066°46'0 0.0
2017-Aug-27 15:20N 17°60' W 066°46'0 0.0
2017-Aug-27 14:20N 17°60' W 066°46'0 0.0
2017-Aug-27 13:32N 17°60' W 066°46'0 0.1
2017-Aug-27 13:20N 17°60' W 066°46'0 0.0
2017-Aug-27 12:44N 17°60' W 066°46'  
2017-Aug-23 16:49N 17°56' W 066°45'3 8.2
2017-Aug-23 16:30N 17°55' W 066°43'4 7.9
2017-Aug-23 16:00N 17°52' W 066°39'4 7.8
2017-Aug-23 15:30N 17°50' W 066°36'4 7.9
2017-Aug-23 14:57N 17°50' W 066°31'7 7.8
2017-Aug-23 14:00N 17°49' W 066°24'4 7.7
2017-Aug-23 13:30N 17°49' W 066°20'4 7.9
2017-Aug-23 13:00N 17°49' W 066°16'4 7.5
2017-Aug-23 12:30N 17°49' W 066°12'2 3.5
2017-Aug-23 12:00N 17°49' W 066°13'2 4.7
2017-Aug-23 11:30N 17°51' W 066°15'4 7.7
2017-Aug-23 11:00N 17°54' W 066°17'3 5.2
2017-Aug-23 10:30N 17°56' W 066°14'1 3.0
2017-Aug-23 10:00N 17°57' W 066°14'0 0.1
2017-Aug-23 09:30N 17°57' W 066°14'0 0.0
2017-Aug-23 09:00N 17°57' W 066°14'0 0.0
2017-Aug-23 08:30N 17°57' W 066°14'0 0.0
2017-Aug-23 08:00N 17°57' W 066°14'0 0.0
2017-Aug-23 07:30N 17°57' W 066°14'0 0.0
2017-Aug-23 07:00N 17°57' W 066°14'0 0.0
2017-Aug-23 06:30N 17°57' W 066°14'0 0.0
2017-Aug-23 06:00N 17°57' W 066°14'0 0.0
2017-Aug-23 05:29N 17°57' W 066°14'0 0.0
2017-Aug-23 04:59N 17°57' W 066°14'0 0.0
2017-Aug-23 04:30N 17°57' W 066°14'0 0.0
2017-Aug-23 04:00N 17°57' W 066°14'0 0.0
2017-Aug-23 03:30N 17°57' W 066°14'0 0.0
2017-Aug-23 03:00N 17°57' W 066°14'0 0.0
2017-Aug-23 02:30N 17°57' W 066°14'0 0.0
2017-Aug-23 02:00N 17°57' W 066°14'0 0.0
2017-Aug-23 01:30N 17°57' W 066°14'0 0.0
2017-Aug-23 01:00N 17°57' W 066°14'0 0.0
2017-Aug-23 00:30N 17°57' W 066°14'0 0.0
2017-Aug-23 00:00N 17°57' W 066°14'0 0.0
2017-Aug-22 23:30N 17°57' W 066°14'0 0.0
2017-Aug-22 23:00N 17°57' W 066°14'0 0.0
2017-Aug-22 22:30N 17°57' W 066°14'0 0.0
2017-Aug-22 21:59N 17°57' W 066°14'0 0.0
2017-Aug-22 21:30N 17°57' W 066°14'0 0.0
2017-Aug-22 21:00N 17°57' W 066°14'0 0.0
2017-Aug-22 20:30N 17°57' W 066°14'0 0.0
2017-Aug-22 20:00N 17°57' W 066°14'0 0.0
2017-Aug-22 19:30N 17°57' W 066°14'0 0.0
2017-Aug-22 19:00N 17°57' W 066°14'0 0.0
2017-Aug-22 18:30N 17°57' W 066°14'0 0.0
2017-Aug-22 18:00N 17°57' W 066°14'0 0.0
2017-Aug-22 17:30N 17°57' W 066°14'0 0.0
2017-Aug-22 17:00N 17°57' W 066°14'0 0.0
2017-Aug-22 16:30N 17°57' W 066°14'0 0.0
2017-Aug-22 16:00N 17°57' W 066°14'0 0.0
2017-Aug-22 15:30N 17°57' W 066°14'0 0.0
2017-Aug-22 15:00N 17°57' W 066°14'0 0.0
2017-Aug-22 14:30N 17°57' W 066°14'0 0.0
2017-Aug-22 14:00N 17°57' W 066°14'0 0.0
2017-Aug-22 13:30N 17°57' W 066°14'0 0.0
2017-Aug-22 13:00N 17°57' W 066°14'0 0.0
2017-Aug-22 12:30N 17°57' W 066°14'0 0.0
2017-Aug-22 12:00N 17°57' W 066°14'0 0.0
2017-Aug-22 11:30N 17°57' W 066°14'0 0.1
2017-Aug-22 11:00N 17°57' W 066°14'1 1.2
2017-Aug-22 10:30N 17°56' W 066°14'1 2.9
2017-Aug-22 10:00N 17°56' W 066°15'2 3.0
2017-Aug-22 09:30N 17°56' W 066°16'1 2.9
2017-Aug-22 09:00N 17°55' W 066°17'2 4.8
2017-Aug-22 08:30N 17°52' W 066°16'3 5.0
2017-Aug-22 08:00N 17°50' W 066°15'2 3.9
2017-Aug-22 07:30N 17°49' W 066°13'2 4.5
2017-Aug-22 07:00N 17°49' W 066°11'37 1.2
2017-Aug-20 23:31N 18°26' W 066°06'0 0.0
2017-Aug-20 23:22N 18°26' W 066°06'0 0.0
2017-Aug-20 22:58N 18°26' W 066°06'0 0.0
2017-Aug-20 22:25N 18°26' W 066°06'0 0.0
2017-Aug-20 21:55N 18°26' W 066°06'0 0.0
2017-Aug-20 21:28N 18°26' W 066°06'0 0.0
2017-Aug-20 20:58N 18°26' W 066°06'0 0.0
2017-Aug-20 20:28N 18°26' W 066°06'0 0.0
2017-Aug-20 19:58N 18°26' W 066°06'0 0.0
2017-Aug-20 19:28N 18°26' W 066°06'0 0.0
2017-Aug-20 18:55N 18°26' W 066°06'0 0.0
2017-Aug-20 18:25N 18°26' W 066°06'0 0.0
2017-Aug-20 17:58N 18°26' W 066°06'0 0.0
2017-Aug-20 17:28N 18°26' W 066°06'0 0.0
2017-Aug-20 16:55N 18°26' W 066°06'0 0.0
2017-Aug-20 16:28N 18°26' W 066°06'0 0.0
2017-Aug-20 15:58N 18°26' W 066°06'0 0.0
2017-Aug-20 15:28N 18°26' W 066°06'0 0.0
2017-Aug-20 06:16N 18°26' W 066°06'0 0.0
2017-Aug-20 05:58N 18°26' W 066°06'0 0.0
2017-Aug-20 05:28N 18°26' W 066°06'0 0.0
2017-Aug-20 04:58N 18°26' W 066°06'0 0.0
2017-Aug-20 04:28N 18°26' W 066°06'0 0.0
2017-Aug-20 03:58N 18°26' W 066°06'0 0.0
2017-Aug-20 03:28N 18°26' W 066°06'0 0.0
2017-Aug-20 02:58N 18°26' W 066°06'0 0.0
2017-Aug-20 02:28N 18°26' W 066°06'0 0.0
2017-Aug-20 01:58N 18°26' W 066°06'0 0.0
2017-Aug-20 01:28N 18°26' W 066°06'0 0.0
2017-Aug-20 00:55N 18°26' W 066°06'0 0.0
2017-Aug-20 00:28N 18°26' W 066°06'0 0.0
2017-Aug-19 23:58N 18°26' W 066°06'0 0.0
2017-Aug-19 23:25N 18°26' W 066°06'0 0.0
2017-Aug-19 22:58N 18°26' W 066°06'0 0.0
2017-Aug-19 22:28N 18°26' W 066°06'0 0.0
2017-Aug-19 21:58N 18°26' W 066°06'0 0.0
2017-Aug-19 21:28N 18°26' W 066°06'0 0.0
2017-Aug-19 20:58N 18°26' W 066°06'0 0.0
2017-Aug-19 20:25N 18°26' W 066°06'0 0.0
2017-Aug-19 19:55N 18°26' W 066°06'0 0.0
2017-Aug-19 19:25N 18°26' W 066°06'0 0.0
2017-Aug-19 18:58N 18°26' W 066°06'0 0.0
2017-Aug-19 18:28N 18°26' W 066°06'0 0.0
2017-Aug-19 17:55N 18°26' W 066°06'0 0.0
2017-Aug-19 17:25N 18°26' W 066°06'0 0.0
2017-Aug-19 16:58N 18°26' W 066°06'0 0.0
2017-Aug-19 16:25N 18°26' W 066°06'  
Track history (hours):
 
Tides and Currents Weather Stations Pressure Air Temp Water Temp Dewpoint Dewpoint Depression Visibility Wind Speed Wind Dir Waves Ship Positions

Handy-one

Owner: Tugz International L.L.C., Cleveland, OH. More information available from US FCC via Universal Licensing System and Coast Guard Vessel Documentation Center.

Last reported at 2017-Aug-29 11:40 UTC. Time now 2017-Sep-24 15:53 UTC.
Position N 17°51' W 066°07'.
Warning: this ship's position is 26 days out of date.

Length 22 m; draft 3.6 m.

Type: Tug. MMSI: 367341590.

Date/timePositionNaut miles runAvg speedWind from/ knotsBaromVisibWave heightAir tempDewpointWater temp
2017-Aug-29 11:40N 17°51' W 066°07'210.3
2017-Aug-29 11:29N 17°52' W 066°09'510.2
2017-Aug-29 11:01N 17°53' W 066°14'4 7.7
2017-Aug-29 10:30N 17°56' W 066°16'3 2.1
2017-Aug-29 09:12N 17°57' W 066°14'0 0.0
2017-Aug-29 09:00N 17°57' W 066°14'0 0.0
2017-Aug-29 08:30N 17°57' W 066°14'0 0.0
2017-Aug-29 08:00N 17°57' W 066°14'0 0.0
2017-Aug-29 07:30N 17°57' W 066°14'0 0.0
2017-Aug-29 06:54N 17°57' W 066°14'0 0.0
2017-Aug-29 06:30N 17°57' W 066°14'0 0.0
2017-Aug-29 05:36N 17°57' W 066°14'0 0.0
2017-Aug-29 05:30N 17°57' W 066°14'0 0.0
2017-Aug-29 05:00N 17°57' W 066°14'0 0.0
2017-Aug-29 04:27N 17°57' W 066°14'0 0.0
2017-Aug-29 04:00N 17°57' W 066°14'0 0.0
2017-Aug-29 03:24N 17°57' W 066°14'0 0.0
2017-Aug-29 03:00N 17°57' W 066°14'0 0.0
2017-Aug-29 02:30N 17°57' W 066°14'0 0.0
2017-Aug-29 02:00N 17°57' W 066°14'0 0.0
2017-Aug-29 01:30N 17°57' W 066°14'0 0.0
2017-Aug-29 01:00N 17°57' W 066°14'0 0.0
2017-Aug-28 19:31N 17°57' W 066°14'0 1.1
2017-Aug-28 19:28N 17°57' W 066°14'0 0.0
2017-Aug-28 18:58N 17°57' W 066°14'0 0.0
2017-Aug-28 18:28N 17°57' W 066°14'0 0.0
2017-Aug-28 17:58N 17°57' W 066°14'0 0.0
2017-Aug-28 17:28N 17°57' W 066°14'0 0.0
2017-Aug-28 16:58N 17°57' W 066°14'0 0.1
2017-Aug-28 16:28N 17°57' W 066°14'0 0.1
2017-Aug-28 15:58N 17°57' W 066°14'0 0.5
2017-Aug-28 15:28N 17°57' W 066°13'1 2.5
2017-Aug-28 15:00N 17°56' W 066°14'1 1.3
2017-Aug-28 14:29N 17°56' W 066°15'0 0.0
2017-Aug-28 13:59N 17°56' W 066°15'0 0.0
2017-Aug-28 13:23N 17°56' W 066°15'0 0.0
2017-Aug-28 12:59N 17°56' W 066°15'0 0.0
2017-Aug-28 12:29N 17°56' W 066°15'0 0.0
2017-Aug-28 11:59N 17°56' W 066°15'0 0.0
2017-Aug-28 11:29N 17°56' W 066°15'0 0.0
2017-Aug-28 10:59N 17°56' W 066°15'0 0.0
2017-Aug-28 10:29N 17°56' W 066°15'0 0.0
2017-Aug-28 09:53N 17°56' W 066°15'0 0.0
2017-Aug-28 09:29N 17°56' W 066°15'0 0.0
2017-Aug-28 08:59N 17°56' W 066°15'0 0.0
2017-Aug-28 08:29N 17°56' W 066°15'0 0.0
2017-Aug-28 07:59N 17°56' W 066°15'0 0.0
2017-Aug-28 07:29N 17°56' W 066°15'0 0.0
2017-Aug-28 06:59N 17°56' W 066°15'0 0.0
2017-Aug-28 06:29N 17°56' W 066°15'0 0.0
2017-Aug-28 06:01N 17°56' W 066°15'0 0.0
2017-Aug-28 05:31N 17°56' W 066°15'0 0.0
2017-Aug-28 05:01N 17°56' W 066°15'0 0.0
2017-Aug-28 04:31N 17°56' W 066°15'0 0.0
2017-Aug-28 04:01N 17°56' W 066°15'0 0.0
2017-Aug-28 03:31N 17°56' W 066°15'0 0.0
2017-Aug-28 03:01N 17°56' W 066°15'0 0.0
2017-Aug-28 02:30N 17°56' W 066°15'0 0.0
2017-Aug-28 02:01N 17°56' W 066°15'0 0.1
2017-Aug-28 01:31N 17°56' W 066°15'1 1.9
2017-Aug-28 01:01N 17°56' W 066°16'2 3.4
2017-Aug-28 00:31N 17°55' W 066°17'2 4.9
2017-Aug-28 00:01N 17°53' W 066°18'2 4.7
2017-Aug-27 23:31N 17°51' W 066°19'2 4.5
2017-Aug-27 23:01N 17°49' W 066°20'1 2.8
2017-Aug-27 22:31N 17°49' W 066°22'2 3.3
2017-Aug-27 22:00N 17°49' W 066°23'3 5.3
2017-Aug-27 21:31N 17°49' W 066°26'3 5.5
2017-Aug-27 21:01N 17°49' W 066°29'3 5.4
2017-Aug-27 20:30N 17°50' W 066°32'3 5.5
2017-Aug-27 20:00N 17°50' W 066°35'3 5.5
2017-Aug-27 19:31N 17°51' W 066°37'3 5.5
2017-Aug-27 19:01N 17°53' W 066°40'3 5.6
2017-Aug-27 18:31N 17°55' W 066°42'3 5.5
2017-Aug-27 18:00N 17°56' W 066°44'4 2.5
2017-Aug-27 16:26N 17°60' W 066°46'0 0.0
2017-Aug-27 15:50N 17°60' W 066°46'0 0.0
2017-Aug-27 15:20N 17°60' W 066°46'0 0.0
2017-Aug-27 14:20N 17°60' W 066°46'0 0.0
2017-Aug-27 13:32N 17°60' W 066°46'0 0.1
2017-Aug-27 13:20N 17°60' W 066°46'0 0.0
2017-Aug-27 12:44N 17°60' W 066°46'  
2017-Aug-23 16:49N 17°56' W 066°45'3 8.2
2017-Aug-23 16:30N 17°55' W 066°43'4 7.9
2017-Aug-23 16:00N 17°52' W 066°39'4 7.8
2017-Aug-23 15:30N 17°50' W 066°36'4 7.9
2017-Aug-23 14:57N 17°50' W 066°31'7 7.8
2017-Aug-23 14:00N 17°49' W 066°24'4 7.7
2017-Aug-23 13:30N 17°49' W 066°20'4 7.9
2017-Aug-23 13:00N 17°49' W 066°16'4 7.5
2017-Aug-23 12:30N 17°49' W 066°12'2 3.5
2017-Aug-23 12:00N 17°49' W 066°13'2 4.7
2017-Aug-23 11:30N 17°51' W 066°15'4 7.7
2017-Aug-23 11:00N 17°54' W 066°17'3 5.2
2017-Aug-23 10:30N 17°56' W 066°14'1 3.0
2017-Aug-23 10:00N 17°57' W 066°14'0 0.1
2017-Aug-23 09:30N 17°57' W 066°14'0 0.0
2017-Aug-23 09:00N 17°57' W 066°14'0 0.0
2017-Aug-23 08:30N 17°57' W 066°14'0 0.0
2017-Aug-23 08:00N 17°57' W 066°14'0 0.0
2017-Aug-23 07:30N 17°57' W 066°14'0 0.0
2017-Aug-23 07:00N 17°57' W 066°14'0 0.0
2017-Aug-23 06:30N 17°57' W 066°14'0 0.0
2017-Aug-23 06:00N 17°57' W 066°14'0 0.0
2017-Aug-23 05:29N 17°57' W 066°14'0 0.0
2017-Aug-23 04:59N 17°57' W 066°14'0 0.0
2017-Aug-23 04:30N 17°57' W 066°14'0 0.0
2017-Aug-23 04:00N 17°57' W 066°14'0 0.0
2017-Aug-23 03:30N 17°57' W 066°14'0 0.0
2017-Aug-23 03:00N 17°57' W 066°14'0 0.0
2017-Aug-23 02:30N 17°57' W 066°14'0 0.0
2017-Aug-23 02:00N 17°57' W 066°14'0 0.0
2017-Aug-23 01:30N 17°57' W 066°14'0 0.0
2017-Aug-23 01:00N 17°57' W 066°14'0 0.0
2017-Aug-23 00:30N 17°57' W 066°14'0 0.0
2017-Aug-23 00:00N 17°57' W 066°14'0 0.0
2017-Aug-22 23:30N 17°57' W 066°14'0 0.0
2017-Aug-22 23:00N 17°57' W 066°14'0 0.0
2017-Aug-22 22:30N 17°57' W 066°14'0 0.0
2017-Aug-22 21:59N 17°57' W 066°14'0 0.0
2017-Aug-22 21:30N 17°57' W 066°14'0 0.0
2017-Aug-22 21:00N 17°57' W 066°14'0 0.0
2017-Aug-22 20:30N 17°57' W 066°14'0 0.0
2017-Aug-22 20:00N 17°57' W 066°14'0 0.0
2017-Aug-22 19:30N 17°57' W 066°14'0 0.0
2017-Aug-22 19:00N 17°57' W 066°14'0 0.0
2017-Aug-22 18:30N 17°57' W 066°14'0 0.0
2017-Aug-22 18:00N 17°57' W 066°14'0 0.0
2017-Aug-22 17:30N 17°57' W 066°14'0 0.0
2017-Aug-22 17:00N 17°57' W 066°14'0 0.0
2017-Aug-22 16:30N 17°57' W 066°14'0 0.0
2017-Aug-22 16:00N 17°57' W 066°14'0 0.0
2017-Aug-22 15:30N 17°57' W 066°14'0 0.0
2017-Aug-22 15:00N 17°57' W 066°14'0 0.0
2017-Aug-22 14:30N 17°57' W 066°14'0 0.0
2017-Aug-22 14:00N 17°57' W 066°14'0 0.0
2017-Aug-22 13:30N 17°57' W 066°14'0 0.0
2017-Aug-22 13:00N 17°57' W 066°14'0 0.0
2017-Aug-22 12:30N 17°57' W 066°14'0 0.0
2017-Aug-22 12:00N 17°57' W 066°14'0 0.0
2017-Aug-22 11:30N 17°57' W 066°14'0 0.1
2017-Aug-22 11:00N 17°57' W 066°14'1 1.2
2017-Aug-22 10:30N 17°56' W 066°14'1 2.9
2017-Aug-22 10:00N 17°56' W 066°15'2 3.0
2017-Aug-22 09:30N 17°56' W 066°16'1 2.9
2017-Aug-22 09:00N 17°55' W 066°17'2 4.8
2017-Aug-22 08:30N 17°52' W 066°16'3 5.0
2017-Aug-22 08:00N 17°50' W 066°15'2 3.9
2017-Aug-22 07:30N 17°49' W 066°13'2 4.5
2017-Aug-22 07:00N 17°49' W 066°11'37 1.2
2017-Aug-20 23:31N 18°26' W 066°06'0 0.0
2017-Aug-20 23:22N 18°26' W 066°06'0 0.0
2017-Aug-20 22:58N 18°26' W 066°06'0 0.0
2017-Aug-20 22:25N 18°26' W 066°06'0 0.0
2017-Aug-20 21:55N 18°26' W 066°06'0 0.0
2017-Aug-20 21:28N 18°26' W 066°06'0 0.0
2017-Aug-20 20:58N 18°26' W 066°06'0 0.0
2017-Aug-20 20:28N 18°26' W 066°06'0 0.0
2017-Aug-20 19:58N 18°26' W 066°06'0 0.0
2017-Aug-20 19:28N 18°26' W 066°06'0 0.0
2017-Aug-20 18:55N 18°26' W 066°06'0 0.0
2017-Aug-20 18:25N 18°26' W 066°06'0 0.0
2017-Aug-20 17:58N 18°26' W 066°06'0 0.0
2017-Aug-20 17:28N 18°26' W 066°06'0 0.0
2017-Aug-20 16:55N 18°26' W 066°06'0 0.0
2017-Aug-20 16:28N 18°26' W 066°06'0 0.0
2017-Aug-20 15:58N 18°26' W 066°06'0 0.0
2017-Aug-20 15:28N 18°26' W 066°06'0 0.0
2017-Aug-20 06:16N 18°26' W 066°06'0 0.0
2017-Aug-20 05:58N 18°26' W 066°06'0 0.0
2017-Aug-20 05:28N 18°26' W 066°06'0 0.0
2017-Aug-20 04:58N 18°26' W 066°06'0 0.0
2017-Aug-20 04:28N 18°26' W 066°06'0 0.0
2017-Aug-20 03:58N 18°26' W 066°06'0 0.0
2017-Aug-20 03:28N 18°26' W 066°06'0 0.0
2017-Aug-20 02:58N 18°26' W 066°06'0 0.0
2017-Aug-20 02:28N 18°26' W 066°06'0 0.0
2017-Aug-20 01:58N 18°26' W 066°06'0 0.0
2017-Aug-20 01:28N 18°26' W 066°06'0 0.0
2017-Aug-20 00:55N 18°26' W 066°06'0 0.0
2017-Aug-20 00:28N 18°26' W 066°06'0 0.0
2017-Aug-19 23:58N 18°26' W 066°06'0 0.0
2017-Aug-19 23:25N 18°26' W 066°06'0 0.0
2017-Aug-19 22:58N 18°26' W 066°06'0 0.0
2017-Aug-19 22:28N 18°26' W 066°06'0 0.0
2017-Aug-19 21:58N 18°26' W 066°06'0 0.0
2017-Aug-19 21:28N 18°26' W 066°06'0 0.0
2017-Aug-19 20:58N 18°26' W 066°06'0 0.0
2017-Aug-19 20:25N 18°26' W 066°06'0 0.0
2017-Aug-19 19:55N 18°26' W 066°06'0 0.0
2017-Aug-19 19:25N 18°26' W 066°06'0 0.0
2017-Aug-19 18:58N 18°26' W 066°06'0 0.0
2017-Aug-19 18:28N 18°26' W 066°06'0 0.0
2017-Aug-19 17:55N 18°26' W 066°06'0 0.0
2017-Aug-19 17:25N 18°26' W 066°06'0 0.0
2017-Aug-19 16:58N 18°26' W 066°06'0 0.0
2017-Aug-19 16:25N 18°26' W 066°06'  

Dump ship's entire track history